createdAt,value
2018-05-21T06:56:13.128Z,99.90
2018-05-21T06:58:45.228Z,99.90
2018-05-21T07:01:16.863Z,99.90
2018-05-21T07:03:48.294Z,99.90
2018-05-21T07:06:20.596Z,99.90
2018-05-21T07:08:51.583Z,99.90
2018-05-21T07:11:25.187Z,99.90
2018-05-21T07:14:00.846Z,99.90
2018-05-21T07:16:33.081Z,99.90
2018-05-21T07:19:06.527Z,99.90
2018-05-21T07:21:39.880Z,99.90
2018-05-21T07:24:12.394Z,99.90
2018-05-21T07:26:45.334Z,99.90
2018-05-21T07:29:16.893Z,99.90
2018-05-21T07:31:50.280Z,99.90
2018-05-21T07:34:23.715Z,99.90
2018-05-21T07:36:57.174Z,99.90
2018-05-21T07:39:28.735Z,99.90
2018-05-21T07:41:59.744Z,99.90
2018-05-21T07:44:30.760Z,99.90
2018-05-21T07:47:03.616Z,99.90
2018-05-21T07:49:37.070Z,97.50
2018-05-21T07:52:08.367Z,97.50
2018-05-21T07:54:40.736Z,91.10
2018-05-21T07:57:13.577Z,92.20
2018-05-21T07:59:44.759Z,92.40
2018-05-21T08:02:17.092Z,95.50
2018-05-21T08:04:48.435Z,95.40
2018-05-21T08:07:19.487Z,95.60
2018-05-21T08:09:50.855Z,95.20
2018-05-21T08:12:23.661Z,94.50
2018-05-21T08:14:54.974Z,94.50
2018-05-21T08:17:26.358Z,94.60
2018-05-21T08:19:57.406Z,93.10
2018-05-21T08:22:29.353Z,92.80
2018-05-21T08:25:00.931Z,94.00
2018-05-21T08:27:34.264Z,93.80
2018-05-21T08:30:05.797Z,91.90
2018-05-21T08:32:36.950Z,94.60
2018-05-21T08:35:07.956Z,95.10
2018-05-21T08:37:39.039Z,93.40
2018-05-21T08:40:14.118Z,95.10
2018-05-21T08:42:46.032Z,93.20
2018-05-21T08:45:18.401Z,92.70
2018-05-21T08:47:50.073Z,94.00
2018-05-21T08:50:21.659Z,92.90
2018-05-21T08:52:53.465Z,91.00
2018-05-21T08:55:25.583Z,91.10
2018-05-21T08:57:57.397Z,93.90
2018-05-21T09:00:29.902Z,93.40
2018-05-21T09:03:02.604Z,93.10
2018-05-21T09:05:35.929Z,90.00
2018-05-21T09:08:06.957Z,91.60
2018-05-21T09:10:38.273Z,89.60
2018-05-21T09:13:10.849Z,91.90
2018-05-21T09:15:42.043Z,91.70
2018-05-21T09:18:13.869Z,88.90
2018-05-21T09:20:45.594Z,86.40
2018-05-21T09:23:21.098Z,86.50
2018-05-21T09:25:52.722Z,91.50
2018-05-21T09:28:25.219Z,90.80
2018-05-21T09:30:56.202Z,88.70
2018-05-21T09:33:27.489Z,92.10
2018-05-21T09:36:02.160Z,86.90
2018-05-21T09:38:32.973Z,88.30
2018-05-21T09:41:03.974Z,90.90
2018-05-21T09:43:36.465Z,91.30
2018-05-21T09:46:08.293Z,85.80
2018-05-21T09:48:40.097Z,84.40
2018-05-21T09:51:12.043Z,84.70
2018-05-21T09:53:43.975Z,75.90
2018-05-21T09:56:15.981Z,76.20
2018-05-21T09:58:48.591Z,81.10
2018-05-21T10:01:21.155Z,85.80
2018-05-21T10:03:53.120Z,87.80
2018-05-21T10:06:25.511Z,87.40
2018-05-21T10:08:57.832Z,77.40
2018-05-21T10:11:33.814Z,78.00
2018-05-21T10:14:05.374Z,74.80
2018-05-21T10:16:37.725Z,82.50
2018-05-21T10:19:09.971Z,85.60
2018-05-21T10:21:43.011Z,85.80
2018-05-21T10:24:14.975Z,86.10
2018-05-21T10:26:47.019Z,90.70
2018-05-21T10:29:18.046Z,87.30
2018-05-21T10:31:53.101Z,92.20
2018-05-21T10:34:24.767Z,86.40
2018-05-21T10:36:55.751Z,89.00
2018-05-21T10:39:31.873Z,90.10
2018-05-21T10:42:03.573Z,90.60
2018-05-21T10:44:36.101Z,84.50
2018-05-21T10:47:07.711Z,84.10
2018-05-21T10:49:44.284Z,88.90
2018-05-21T10:52:16.836Z,88.90
2018-05-21T10:54:48.567Z,88.30
2018-05-21T10:57:24.425Z,88.60
2018-05-21T11:00:00.132Z,90.90
2018-05-21T11:02:32.004Z,91.00
2018-05-21T11:05:03.757Z,80.90
2018-05-21T11:07:39.279Z,85.60
2018-05-21T11:10:14.461Z,91.50
2018-05-21T11:12:47.148Z,90.10
2018-05-21T11:15:25.137Z,90.10
2018-05-21T11:18:03.904Z,86.70
2018-05-21T11:20:35.800Z,89.40
2018-05-21T11:23:08.279Z,82.90
2018-05-21T11:25:45.971Z,83.70
2018-05-21T11:28:19.118Z,86.50
2018-05-21T11:30:51.374Z,86.40
2018-05-21T11:33:26.809Z,81.60
2018-05-21T11:36:02.650Z,85.00
2018-05-21T11:38:34.913Z,77.20
2018-05-21T11:41:07.373Z,79.10
2018-05-21T11:43:43.073Z,78.40
2018-05-21T11:46:18.683Z,67.50
2018-05-21T11:48:51.358Z,70.50
2018-05-21T11:51:27.317Z,70.60
2018-05-21T11:54:03.811Z,74.50
2018-05-21T11:56:35.653Z,65.00
2018-05-21T11:59:08.201Z,71.30
2018-05-21T12:01:45.065Z,69.00
2018-05-21T12:04:16.839Z,68.90
2018-05-21T12:06:49.293Z,69.80
2018-05-21T12:09:24.747Z,70.20
2018-05-21T12:12:01.389Z,73.20
2018-05-21T12:14:32.905Z,76.60
2018-05-21T12:17:07.868Z,71.60
2018-05-21T12:19:44.013Z,63.00
2018-05-21T12:22:16.881Z,63.70
2018-05-21T12:24:49.645Z,75.60
2018-05-21T12:27:26.230Z,69.60
2018-05-21T12:30:02.307Z,70.00
2018-05-21T12:32:33.964Z,58.90
2018-05-21T12:35:05.498Z,64.00
2018-05-21T12:37:41.427Z,69.30
2018-05-21T12:40:15.283Z,72.90
2018-05-21T12:42:47.131Z,62.80
2018-05-21T12:45:23.854Z,65.00
2018-05-21T12:47:59.455Z,68.50
2018-05-21T12:50:32.033Z,63.70
2018-05-21T12:53:03.439Z,65.60
2018-05-21T12:55:39.789Z,56.60
2018-05-21T12:58:15.583Z,56.80
2018-05-21T13:00:51.347Z,58.70
2018-05-21T13:03:27.879Z,59.30
2018-05-21T13:06:03.576Z,59.10
2018-05-21T13:08:35.409Z,58.70
2018-05-21T13:11:08.736Z,57.10
2018-05-21T13:13:46.985Z,57.10
2018-05-21T13:16:18.781Z,58.00
2018-05-21T13:18:51.265Z,62.90
2018-05-21T13:21:26.965Z,63.30
2018-05-21T13:24:04.224Z,55.50
2018-05-21T13:26:35.995Z,57.00
2018-05-21T13:29:07.827Z,57.60
2018-05-21T13:31:43.468Z,60.10
2018-05-21T13:34:15.198Z,66.50
2018-05-21T13:36:47.639Z,60.30
2018-05-21T13:39:23.745Z,60.20
2018-05-21T13:41:59.244Z,56.50
2018-05-21T13:44:31.012Z,56.50
2018-05-21T13:47:02.604Z,59.40
2018-05-21T13:49:38.667Z,59.00
2018-05-21T13:52:14.605Z,60.50
2018-05-21T13:54:51.565Z,58.70
2018-05-21T13:57:26.885Z,55.00
2018-05-21T14:00:02.855Z,58.40
2018-05-21T14:02:34.657Z,55.00
2018-05-21T14:05:06.333Z,64.00
2018-05-21T14:07:42.905Z,72.70
2018-05-21T14:10:18.797Z,89.10
2018-05-21T14:12:50.401Z,89.60
2018-05-21T14:15:26.919Z,85.90
2018-05-21T14:18:02.545Z,89.10
2018-05-21T14:20:34.257Z,87.90
2018-05-21T14:23:06.636Z,88.50
2018-05-21T14:25:43.380Z,88.50
2018-05-21T14:28:14.971Z,90.10
2018-05-21T14:30:47.084Z,90.50
2018-05-21T14:33:22.739Z,81.40
2018-05-21T14:35:58.639Z,88.70
2018-05-21T14:38:30.749Z,91.50
2018-05-21T14:41:02.577Z,91.50
2018-05-21T14:43:38.193Z,83.60
2018-05-21T14:46:13.912Z,93.00
2018-05-21T14:48:49.537Z,86.90
2018-05-21T14:51:25.977Z,91.50
2018-05-21T14:54:02.538Z,77.10
2018-05-21T14:56:39.831Z,90.00
2018-05-21T14:59:12.511Z,93.50
2018-05-21T15:01:49.681Z,94.50
2018-05-21T15:04:21.491Z,94.60
2018-05-21T15:06:53.310Z,94.70
2018-05-21T15:09:29.471Z,92.70
2018-05-21T15:12:07.408Z,90.00
2018-05-21T15:14:39.174Z,89.90
2018-05-21T15:17:11.075Z,90.10
2018-05-21T15:19:45.890Z,92.90
2018-05-21T15:22:17.582Z,92.40
2018-05-21T15:24:49.523Z,91.90
2018-05-21T15:27:26.539Z,95.10
2018-05-21T15:30:02.290Z,95.00
2018-05-21T15:32:34.088Z,96.40
2018-05-21T15:35:05.728Z,96.60
2018-05-21T15:37:42.049Z,97.00
2018-05-21T15:40:18.349Z,96.00
2018-05-21T15:42:50.010Z,96.00
2018-05-21T15:45:26.229Z,96.60
2018-05-21T15:48:04.107Z,93.50
2018-05-21T15:50:35.835Z,93.50
2018-05-21T15:53:07.637Z,96.60
2018-05-21T15:55:43.811Z,97.20
2018-05-21T15:58:16.395Z,97.80
2018-05-21T16:00:53.155Z,95.90
2018-05-21T16:03:30.090Z,96.90
2018-05-21T16:06:05.569Z,96.90
2018-05-21T16:08:37.682Z,97.20
2018-05-21T16:11:09.761Z,97.40
2018-05-21T16:13:45.781Z,98.60
2018-05-21T16:16:18.224Z,98.90
2018-05-21T16:18:50.035Z,98.90
2018-05-21T16:21:26.633Z,99.90
2018-05-21T16:24:03.473Z,98.70
2018-05-21T16:26:34.979Z,99.70
2018-05-21T16:29:06.637Z,99.40
2018-05-21T16:31:42.368Z,99.10
2018-05-21T16:34:19.373Z,98.90
2018-05-21T16:36:55.115Z,99.90
2018-05-21T16:39:31.633Z,98.00
2018-05-21T16:42:07.193Z,96.80
2018-05-21T16:44:40.055Z,97.80
2018-05-21T16:47:12.405Z,99.90
2018-05-21T16:49:48.146Z,99.90
2018-05-21T16:52:20.310Z,99.90
2018-05-21T16:54:52.418Z,99.90
2018-05-21T16:57:28.394Z,99.10
2018-05-21T17:00:06.014Z,99.10
2018-05-21T17:02:38.421Z,99.90
2018-05-21T17:05:09.869Z,99.90
2018-05-21T17:07:45.777Z,99.90
2018-05-21T17:10:18.027Z,99.90
2018-05-21T17:12:53.877Z,99.90
2018-05-21T17:15:30.377Z,99.90
2018-05-21T17:18:06.140Z,99.90
2018-05-21T17:20:39.145Z,99.90
2018-05-21T17:23:10.940Z,99.90
2018-05-21T17:25:46.393Z,99.90
2018-05-21T17:28:17.478Z,99.90
2018-05-21T17:30:48.717Z,99.90
2018-05-21T17:33:23.644Z,99.90
2018-05-21T17:36:00.515Z,99.90
2018-05-21T17:38:31.513Z,99.90
2018-05-21T17:41:02.806Z,99.90
2018-05-21T17:43:38.526Z,99.90
2018-05-21T17:46:14.993Z,99.90
2018-05-21T17:48:46.023Z,99.90
2018-05-21T17:51:21.228Z,99.90
2018-05-21T17:53:56.024Z,99.90
2018-05-21T17:56:28.116Z,99.90
2018-05-21T17:58:59.101Z,99.90
2018-05-21T18:01:35.430Z,99.90
2018-05-21T18:04:10.994Z,99.90
2018-05-21T18:06:42.115Z,99.90
2018-05-21T18:09:13.075Z,99.90
2018-05-21T18:11:48.439Z,99.90
2018-05-21T18:14:23.689Z,99.90
2018-05-21T18:16:54.762Z,99.90
2018-05-21T18:19:30.015Z,99.90
2018-05-21T18:22:05.379Z,99.90
2018-05-21T18:24:36.489Z,99.90
2018-05-21T18:27:12.929Z,99.90
2018-05-21T18:29:48.867Z,99.90
2018-05-21T18:32:19.931Z,99.90
2018-05-21T18:34:51.951Z,99.90
2018-05-21T18:37:27.579Z,99.90
2018-05-21T18:40:02.715Z,99.90
2018-05-21T18:42:34.241Z,99.90
2018-05-21T18:45:05.655Z,99.90
2018-05-21T18:47:40.803Z,99.90
2018-05-21T18:50:15.341Z,99.90
2018-05-21T18:52:47.301Z,99.90
2018-05-21T18:55:23.019Z,99.90
2018-05-21T18:57:54.245Z,99.90
2018-05-21T19:00:25.327Z,99.90
2018-05-21T19:02:56.493Z,99.90
2018-05-21T19:05:32.197Z,99.90
2018-05-21T19:08:07.847Z,99.90
2018-05-21T19:10:39.587Z,99.90
2018-05-21T19:13:10.645Z,99.90
2018-05-21T19:15:45.449Z,99.90
2018-05-21T19:18:16.562Z,99.90
2018-05-21T19:20:49.858Z,99.90
2018-05-21T19:23:25.025Z,99.90
2018-05-21T19:25:59.921Z,99.90
2018-05-21T19:28:32.010Z,99.90
2018-05-21T19:31:03.216Z,99.90
2018-05-21T19:33:38.699Z,99.90
2018-05-21T19:36:14.799Z,99.90
2018-05-21T19:38:46.670Z,99.90
2018-05-21T19:41:21.433Z,99.90
2018-05-21T19:43:58.219Z,99.90
2018-05-21T19:46:29.339Z,99.90
2018-05-21T19:49:02.063Z,99.90
2018-05-21T19:51:36.899Z,99.90
2018-05-21T19:54:08.724Z,99.90
2018-05-21T19:56:40.641Z,99.90
2018-05-21T19:59:12.615Z,99.90
2018-05-21T20:01:47.533Z,99.90
2018-05-21T20:04:18.598Z,99.90
2018-05-21T20:06:49.723Z,99.90
2018-05-21T20:09:25.817Z,99.90
2018-05-21T20:12:00.498Z,99.90
2018-05-21T20:14:31.085Z,99.90
2018-05-21T20:17:02.286Z,99.90
2018-05-21T20:19:39.165Z,99.90
2018-05-21T20:22:13.628Z,99.90
2018-05-21T20:24:45.105Z,99.90
2018-05-21T20:27:20.033Z,99.90
2018-05-21T20:29:55.674Z,99.90
2018-05-21T20:32:27.363Z,99.90
2018-05-21T20:34:58.569Z,99.90
2018-05-21T20:37:33.763Z,99.90
2018-05-21T20:40:09.839Z,99.90
2018-05-21T20:42:41.685Z,99.90
2018-05-21T20:45:12.892Z,99.90
2018-05-21T20:47:47.653Z,99.90
2018-05-21T20:50:18.923Z,99.90
2018-05-21T20:52:50.839Z,99.90
2018-05-21T20:55:28.875Z,99.90
2018-05-21T20:58:03.547Z,99.90
2018-05-21T21:00:34.438Z,99.90
2018-05-21T21:03:06.525Z,99.90
2018-05-21T21:05:43.166Z,99.90
2018-05-21T21:08:17.979Z,99.90
2018-05-21T21:10:49.290Z,99.90
2018-05-21T21:13:23.994Z,99.90
2018-05-21T21:15:58.828Z,99.90
2018-05-21T21:18:31.652Z,99.90
2018-05-21T21:21:02.446Z,99.90
2018-05-21T21:23:38.065Z,99.90
2018-05-21T21:26:14.009Z,99.90
2018-05-21T21:28:45.508Z,99.90
2018-05-21T21:31:17.662Z,99.90
2018-05-21T21:33:53.483Z,99.90
2018-05-21T21:36:25.481Z,99.90
2018-05-21T21:38:57.389Z,99.90
2018-05-21T21:41:32.571Z,99.90
2018-05-21T21:44:07.365Z,99.90
2018-05-21T21:46:38.441Z,99.90
2018-05-21T21:49:09.259Z,99.90
2018-05-21T21:51:44.275Z,99.90
2018-05-21T21:54:15.011Z,99.90
2018-05-21T21:56:46.043Z,99.90
2018-05-21T21:59:20.454Z,99.90
2018-05-21T22:01:55.760Z,99.90
2018-05-21T22:04:26.505Z,99.90
2018-05-21T22:06:57.063Z,99.90
2018-05-21T22:09:33.607Z,99.90
2018-05-21T22:12:07.656Z,99.90
2018-05-21T22:14:39.021Z,99.90
2018-05-21T22:17:10.261Z,99.90
2018-05-21T22:19:45.116Z,99.90
2018-05-21T22:22:17.075Z,99.90
2018-05-21T22:24:48.969Z,99.90
2018-05-21T22:27:23.874Z,99.90
2018-05-21T22:29:59.517Z,99.90
2018-05-21T22:32:31.425Z,99.90
2018-05-21T22:35:02.470Z,99.90
2018-05-21T22:37:37.687Z,99.90
2018-05-21T22:40:12.317Z,99.90
2018-05-21T22:42:43.908Z,99.90
2018-05-21T22:45:19.728Z,99.90
2018-05-21T22:47:54.501Z,99.90
2018-05-21T22:50:26.137Z,99.90
2018-05-21T22:52:58.184Z,99.90
2018-05-21T22:55:33.239Z,99.90
2018-05-21T22:58:07.620Z,99.90
2018-05-21T23:00:38.484Z,99.90
2018-05-21T23:03:09.656Z,99.90
2018-05-21T23:05:44.555Z,99.90
2018-05-21T23:08:15.595Z,99.90
2018-05-21T23:10:46.771Z,99.90
2018-05-21T23:13:21.731Z,99.90
2018-05-21T23:15:57.133Z,99.90
2018-05-21T23:18:28.687Z,99.90
2018-05-21T23:21:00.885Z,99.90
2018-05-21T23:23:36.632Z,99.90
2018-05-21T23:26:07.874Z,99.90
2018-05-21T23:28:38.671Z,99.90
2018-05-21T23:31:09.782Z,99.90
2018-05-21T23:33:44.754Z,99.90
2018-05-21T23:36:15.893Z,99.90
2018-05-21T23:38:47.036Z,99.90
2018-05-21T23:41:21.794Z,99.90
2018-05-21T23:43:58.535Z,99.90
2018-05-21T23:46:29.442Z,99.90
2018-05-21T23:49:00.608Z,99.90
2018-05-21T23:51:35.403Z,99.90
2018-05-21T23:54:10.965Z,99.90
2018-05-21T23:56:42.176Z,99.90
2018-05-21T23:59:13.940Z,99.90
